createdAt,value
2023-03-23T16:00:19.458Z,76.61
2023-03-23T16:03:27.474Z,74.39
2023-03-23T16:06:32.751Z,73.63
2023-03-23T16:09:34.136Z,73.44
2023-03-23T16:12:35.594Z,74.48
2023-03-23T16:15:37.071Z,74.22
2023-03-23T16:18:38.499Z,74.29
2023-03-23T16:21:41.317Z,74.47
2023-03-23T16:24:42.707Z,74.79
2023-03-23T16:27:48.860Z,74.50
2023-03-23T16:30:51.900Z,74.18
2023-03-23T16:33:53.369Z,74.79
2023-03-23T16:36:54.742Z,75.14
2023-03-23T16:39:57.551Z,75.65
2023-03-23T16:42:59.359Z,76.57
2023-03-23T16:46:00.911Z,76.79
2023-03-23T16:49:02.318Z,77.04
2023-03-23T16:52:03.833Z,77.32
2023-03-23T16:55:06.741Z,77.79
2023-03-23T17:01:13.490Z,78.04
2023-03-23T17:04:15.610Z,78.24
2023-03-23T17:07:17.225Z,79.24
2023-03-23T17:10:18.893Z,79.12
2023-03-23T17:13:20.408Z,78.91
2023-03-23T17:16:21.825Z,78.92
2023-03-23T17:19:23.321Z,79.14
2023-03-23T17:22:25.697Z,79.75
2023-03-23T17:25:28.182Z,80.21
2023-03-23T17:28:29.608Z,80.73
2023-03-23T17:31:31.110Z,81.55
2023-03-23T17:34:32.602Z,81.65
2023-03-23T17:37:36.262Z,82.26
2023-03-23T17:40:37.768Z,82.85
2023-03-23T17:43:42.534Z,82.63
2023-03-23T17:46:45.410Z,82.46
2023-03-23T17:49:47.713Z,82.68
2023-03-23T17:52:49.850Z,83.91
2023-03-23T17:55:52.739Z,84.69
2023-03-23T17:58:54.507Z,83.78
2023-03-23T18:01:55.960Z,84.54
2023-03-23T18:04:58.139Z,83.52
2023-03-23T18:07:59.535Z,85.22
2023-03-23T18:11:01.276Z,84.70
2023-03-23T18:14:03.043Z,85.16
2023-03-23T18:17:05.291Z,84.92
2023-03-23T18:20:08.608Z,84.18
2023-03-23T18:23:10.795Z,83.58
2023-03-23T18:26:13.826Z,84.04
2023-03-23T18:29:15.314Z,85.27
2023-03-23T18:32:16.936Z,85.86
2023-03-23T18:35:18.582Z,86.15
2023-03-23T18:38:19.994Z,85.68
2023-03-23T18:41:21.425Z,85.82
2023-03-23T18:44:22.894Z,85.42
2023-03-23T18:47:24.368Z,85.63
2023-03-23T18:50:25.764Z,86.18
2023-03-23T18:53:28.189Z,86.28
2023-03-23T18:56:29.708Z,85.78
2023-03-23T18:59:33.719Z,86.38
2023-03-23T19:02:36.050Z,86.62
2023-03-23T19:05:39.493Z,86.34
2023-03-23T19:08:41.050Z,86.69
2023-03-23T19:11:47.204Z,86.61
2023-03-23T19:14:48.688Z,86.70
2023-03-23T19:17:55.792Z,87.15
2023-03-23T19:24:03.364Z,86.88
2023-03-23T19:27:05.642Z,85.14
2023-03-23T19:30:07.987Z,84.42
2023-03-23T19:33:09.451Z,83.42
2023-03-23T19:36:13.203Z,82.93
2023-03-23T19:39:15.216Z,82.46
2023-03-23T19:42:18.446Z,81.98
2023-03-23T19:45:20.276Z,81.46
2023-03-23T19:48:21.686Z,81.20
2023-03-23T19:51:23.546Z,81.07
2023-03-23T19:54:25.156Z,80.92
2023-03-23T19:57:26.850Z,81.04
2023-03-23T20:00:28.817Z,80.73
2023-03-23T20:03:30.194Z,80.69
2023-03-23T20:06:31.784Z,80.98
2023-03-23T20:09:33.334Z,80.76
2023-03-23T20:12:34.834Z,79.66
2023-03-23T20:15:36.922Z,79.24
2023-03-23T20:18:38.617Z,79.16
2023-03-23T20:21:40.272Z,79.10
2023-03-23T20:24:42.168Z,78.60
2023-03-23T20:27:45.330Z,79.24
2023-03-23T20:30:47.114Z,79.31
2023-03-23T20:34:12.866Z,79.07
2023-03-23T20:37:16.279Z,79.70
2023-03-23T20:40:18.556Z,81.13
2023-03-23T20:43:19.975Z,81.28
2023-03-23T20:46:22.019Z,82.52
2023-03-23T20:49:24.739Z,82.67
2023-03-23T20:52:26.258Z,84.38
2023-03-23T20:55:27.660Z,83.90
2023-03-23T20:58:29.788Z,85.56
2023-03-23T21:01:33.108Z,84.60
2023-03-23T21:04:37.102Z,85.69
2023-03-23T21:07:39.193Z,85.77
2023-03-23T21:10:40.930Z,85.67
2023-03-23T21:13:42.603Z,84.30
2023-03-23T21:16:44.127Z,83.75
2023-03-23T21:19:46.971Z,84.17
2023-03-23T21:22:48.374Z,84.67
2023-03-23T21:25:50.334Z,84.41
2023-03-23T21:28:54.008Z,84.44
2023-03-23T21:32:07.787Z,85.51
2023-03-23T21:35:10.179Z,86.45
2023-03-23T21:38:14.268Z,85.41
2023-03-23T21:41:15.907Z,86.81
2023-03-23T21:44:18.073Z,87.75
2023-03-23T21:47:19.502Z,87.69
2023-03-23T21:50:21.925Z,87.82
2023-03-23T21:53:25.342Z,88.40
2023-03-23T21:56:27.896Z,88.67
2023-03-23T21:59:29.354Z,88.48
2023-03-23T22:02:30.926Z,88.02
2023-03-23T22:05:32.375Z,87.92
2023-03-23T22:08:33.774Z,87.09
2023-03-23T22:11:37.272Z,85.87
2023-03-23T22:14:39.127Z,86.05
2023-03-23T22:17:41.121Z,86.51
2023-03-23T22:20:42.513Z,87.10
2023-03-23T22:23:45.257Z,87.43
2023-03-23T22:26:47.016Z,85.73
2023-03-23T22:29:48.420Z,85.75
2023-03-23T22:32:49.891Z,86.23
2023-03-23T22:35:51.343Z,85.85
2023-03-23T22:38:54.890Z,84.53
2023-03-23T22:41:56.470Z,84.75
2023-03-23T22:44:57.879Z,82.39
2023-03-23T22:47:59.741Z,83.57
2023-03-23T22:51:01.398Z,83.07
2023-03-23T22:54:04.258Z,83.37
2023-03-23T22:57:05.891Z,84.16
2023-03-23T23:00:14.008Z,84.55
2023-03-23T23:03:16.502Z,84.58
2023-03-23T23:06:19.118Z,85.89
2023-03-23T23:09:22.048Z,86.86
2023-03-23T23:12:24.150Z,86.97
2023-03-23T23:15:26.266Z,87.18
2023-03-23T23:18:28.072Z,88.00
2023-03-23T23:21:29.514Z,90.71
2023-03-23T23:24:31.141Z,90.43
2023-03-23T23:27:33.241Z,91.79
2023-03-23T23:30:35.012Z,92.70
2023-03-23T23:33:36.441Z,93.12
2023-03-23T23:36:38.323Z,94.46
2023-03-23T23:39:41.215Z,96.89
2023-03-23T23:42:44.492Z,97.68
2023-03-23T23:45:45.967Z,98.16
2023-03-23T23:48:47.414Z,98.54
2023-03-23T23:51:48.877Z,99.23
2023-03-23T23:54:51.404Z,100.00
2023-03-23T23:57:53.376Z,100.00
